sensor_id;sensor_type;location;lat;lon;timestamp;temperature;humidity
52167;DHT22;38149;52.666;6.428;2022-08-01T00:00:35;19.60;99.90
52167;DHT22;38149;52.666;6.428;2022-08-01T00:03:01;19.60;99.90
52167;DHT22;38149;52.666;6.428;2022-08-01T00:05:27;19.50;99.90
52167;DHT22;38149;52.666;6.428;2022-08-01T00:07:53;19.60;99.90
52167;DHT22;38149;52.666;6.428;2022-08-01T00:10:19;19.60;99.90
52167;DHT22;38149;52.666;6.428;2022-08-01T00:12:46;19.60;99.90
52167;DHT22;38149;52.666;6.428;2022-08-01T00:15:14;19.40;99.90
52167;DHT22;38149;52.666;6.428;2022-08-01T00:17:41;19.50;99.90
52167;DHT22;38149;52.666;6.428;2022-08-01T00:20:11;19.60;99.90
52167;DHT22;38149;52.666;6.428;2022-08-01T00:22:37;19.70;99.90
52167;DHT22;38149;52.666;6.428;2022-08-01T00:29:58;19.40;99.90
52167;DHT22;38149;52.666;6.428;2022-08-01T00:34:50;19.40;99.90
52167;DHT22;38149;52.666;6.428;2022-08-01T00:37:16;19.50;99.90
52167;DHT22;38149;52.666;6.428;2022-08-01T00:39:42;19.40;99.90
52167;DHT22;38149;52.666;6.428;2022-08-01T00:42:12;19.40;99.90
52167;DHT22;38149;52.666;6.428;2022-08-01T00:44:39;19.40;99.90
52167;DHT22;38149;52.666;6.428;2022-08-01T00:47:06;19.40;99.90
52167;DHT22;38149;52.666;6.428;2022-08-01T00:49:32;19.40;99.90
52167;DHT22;38149;52.666;6.428;2022-08-01T00:56:54;19.40;99.90
52167;DHT22;38149;52.666;6.428;2022-08-01T01:04:19;20.00;99.90
52167;DHT22;38149;52.666;6.428;2022-08-01T01:12:31;19.30;99.90
52167;DHT22;38149;52.666;6.428;2022-08-01T01:20:31;19.20;99.90
52167;DHT22;38149;52.666;6.428;2022-08-01T01:23:10;19.40;99.90
52167;DHT22;38149;52.666;6.428;2022-08-01T01:41:15;19.40;99.90
52167;DHT22;38149;52.666;6.428;2022-08-01T01:43:43;19.30;99.90
52167;DHT22;38149;52.666;6.428;2022-08-01T01:46:11;19.30;99.90
52167;DHT22;38149;52.666;6.428;2022-08-01T01:48:38;19.30;99.90
52167;DHT22;38149;52.666;6.428;2022-08-01T01:51:05;19.30;99.90
52167;DHT22;38149;52.666;6.428;2022-08-01T01:53:33;19.60;99.90
52167;DHT22;38149;52.666;6.428;2022-08-01T01:56:01;19.40;99.90
52167;DHT22;38149;52.666;6.428;2022-08-01T01:58:32;19.40;99.90
52167;DHT22;38149;52.666;6.428;2022-08-01T02:00:59;19.20;99.90
52167;DHT22;38149;52.666;6.428;2022-08-01T02:05:56;19.20;99.90
52167;DHT22;38149;52.666;6.428;2022-08-01T02:08:23;19.30;99.90
52167;DHT22;38149;52.666;6.428;2022-08-01T02:13:38;19.20;99.90
52167;DHT22;38149;52.666;6.428;2022-08-01T02:18:32;19.20;99.90
52167;DHT22;38149;52.666;6.428;2022-08-01T02:20:59;19.00;99.90
52167;DHT22;38149;52.666;6.428;2022-08-01T02:31:02;19.10;99.90
52167;DHT22;38149;52.666;6.428;2022-08-01T02:33:43;19.30;99.90
52167;DHT22;38149;52.666;6.428;2022-08-01T02:38:43;19.00;99.90
52167;DHT22;38149;52.666;6.428;2022-08-01T02:41:17;19.00;99.90
52167;DHT22;38149;52.666;6.428;2022-08-01T02:51:19;19.00;99.90
52167;DHT22;38149;52.666;6.428;2022-08-01T02:53:48;19.20;99.90
52167;DHT22;38149;52.666;6.428;2022-08-01T02:56:17;19.10;99.90
52167;DHT22;38149;52.666;6.428;2022-08-01T02:58:45;19.10;99.90
52167;DHT22;38149;52.666;6.428;2022-08-01T03:03:40;19.10;99.90
52167;DHT22;38149;52.666;6.428;2022-08-01T03:08:34;19.10;99.90
52167;DHT22;38149;52.666;6.428;2022-08-01T03:23:28;18.80;99.90
52167;DHT22;38149;52.666;6.428;2022-08-01T03:28:26;18.80;99.90
52167;DHT22;38149;52.666;6.428;2022-08-01T03:48:54;18.70;99.90
52167;DHT22;38149;52.666;6.428;2022-08-01T03:51:21;18.80;99.90
52167;DHT22;38149;52.666;6.428;2022-08-01T03:53:49;18.70;99.90
52167;DHT22;38149;52.666;6.428;2022-08-01T03:56:18;18.70;99.90
52167;DHT22;38149;52.666;6.428;2022-08-01T03:58:45;18.70;99.90
52167;DHT22;38149;52.666;6.428;2022-08-01T04:01:12;18.70;99.90
52167;DHT22;38149;52.666;6.428;2022-08-01T04:03:39;18.70;99.90
52167;DHT22;38149;52.666;6.428;2022-08-01T04:06:06;18.70;99.90
52167;DHT22;38149;52.666;6.428;2022-08-01T04:08:37;18.60;99.90
52167;DHT22;38149;52.666;6.428;2022-08-01T04:11:04;18.60;99.90
52167;DHT22;38149;52.666;6.428;2022-08-01T04:13:31;18.60;99.90
52167;DHT22;38149;52.666;6.428;2022-08-01T04:15:57;18.60;99.90
52167;DHT22;38149;52.666;6.428;2022-08-01T04:18:23;18.60;99.90
52167;DHT22;38149;52.666;6.428;2022-08-01T04:20:49;18.60;99.90
52167;DHT22;38149;52.666;6.428;2022-08-01T04:23:18;18.60;99.90
52167;DHT22;38149;52.666;6.428;2022-08-01T04:25:48;18.50;99.90
52167;DHT22;38149;52.666;6.428;2022-08-01T04:28:15;18.50;99.90
52167;DHT22;38149;52.666;6.428;2022-08-01T04:30:44;18.50;99.90
52167;DHT22;38149;52.666;6.428;2022-08-01T04:33:14;18.50;99.90
52167;DHT22;38149;52.666;6.428;2022-08-01T04:35:43;18.50;99.90
52167;DHT22;38149;52.666;6.428;2022-08-01T04:38:17;18.50;99.90
52167;DHT22;38149;52.666;6.428;2022-08-01T04:40:46;18.50;99.90
52167;DHT22;38149;52.666;6.428;2022-08-01T04:43:14;18.50;99.90
52167;DHT22;38149;52.666;6.428;2022-08-01T04:45:40;18.50;99.90
52167;DHT22;38149;52.666;6.428;2022-08-01T04:48:09;18.60;99.90
52167;DHT22;38149;52.666;6.428;2022-08-01T04:50:36;18.60;99.90
52167;DHT22;38149;52.666;6.428;2022-08-01T04:53:03;18.50;99.90
52167;DHT22;38149;52.666;6.428;2022-08-01T04:55:29;18.60;99.90
52167;DHT22;38149;52.666;6.428;2022-08-01T04:57:56;18.60;99.90
52167;DHT22;38149;52.666;6.428;2022-08-01T05:00:22;18.60;99.90
52167;DHT22;38149;52.666;6.428;2022-08-01T05:02:48;18.50;99.90
52167;DHT22;38149;52.666;6.428;2022-08-01T05:05:14;18.50;99.90
52167;DHT22;38149;52.666;6.428;2022-08-01T05:07:40;18.50;99.90
52167;DHT22;38149;52.666;6.428;2022-08-01T05:10:06;18.50;99.90
52167;DHT22;38149;52.666;6.428;2022-08-01T05:12:32;18.50;99.90
52167;DHT22;38149;52.666;6.428;2022-08-01T05:14:58;18.50;99.90
52167;DHT22;38149;52.666;6.428;2022-08-01T05:17:24;18.40;99.90
52167;DHT22;38149;52.666;6.428;2022-08-01T05:19:51;18.40;99.90
52167;DHT22;38149;52.666;6.428;2022-08-01T05:22:16;18.40;99.90
52167;DHT22;38149;52.666;6.428;2022-08-01T05:24:42;18.40;99.90
52167;DHT22;38149;52.666;6.428;2022-08-01T05:27:08;18.50;99.90
52167;DHT22;38149;52.666;6.428;2022-08-01T05:29:34;18.30;99.90
52167;DHT22;38149;52.666;6.428;2022-08-01T05:32:00;18.30;99.90
52167;DHT22;38149;52.666;6.428;2022-08-01T05:34:26;18.30;99.90
52167;DHT22;38149;52.666;6.428;2022-08-01T05:36:53;18.30;99.90
52167;DHT22;38149;52.666;6.428;2022-08-01T05:39:19;18.50;99.90
52167;DHT22;38149;52.666;6.428;2022-08-01T05:41:44;18.40;99.90
52167;DHT22;38149;52.666;6.428;2022-08-01T05:44:10;18.50;99.90
52167;DHT22;38149;52.666;6.428;2022-08-01T05:46:37;17.60;99.90
52167;DHT22;38149;52.666;6.428;2022-08-01T05:49:03;18.40;99.90
52167;DHT22;38149;52.666;6.428;2022-08-01T05:51:30;18.20;99.90
52167;DHT22;38149;52.666;6.428;2022-08-01T05:53:56;18.60;99.90
52167;DHT22;38149;52.666;6.428;2022-08-01T06:57:50;18.40;99.90
52167;DHT22;38149;52.666;6.428;2022-08-01T07:00:17;18.20;99.90
52167;DHT22;38149;52.666;6.428;2022-08-01T07:02:50;18.40;99.90
52167;DHT22;38149;52.666;6.428;2022-08-01T07:07:43;18.30;99.90
52167;DHT22;38149;52.666;6.428;2022-08-01T07:12:36;18.30;99.90
52167;DHT22;38149;52.666;6.428;2022-08-01T07:15:05;18.20;99.90
52167;DHT22;38149;52.666;6.428;2022-08-01T07:17:31;18.20;99.90
52167;DHT22;38149;52.666;6.428;2022-08-01T07:19:56;18.00;99.90
52167;DHT22;38149;52.666;6.428;2022-08-01T07:22:22;17.20;99.90
52167;DHT22;38149;52.666;6.428;2022-08-01T07:24:48;18.20;99.90
52167;DHT22;38149;52.666;6.428;2022-08-01T07:27:14;18.30;99.90
52167;DHT22;38149;52.666;6.428;2022-08-01T07:54:09;18.70;99.90
52167;DHT22;38149;52.666;6.428;2022-08-01T07:56:35;18.60;99.90
52167;DHT22;38149;52.666;6.428;2022-08-01T08:01:27;18.70;99.90
52167;DHT22;38149;52.666;6.428;2022-08-01T08:08:45;18.80;99.90
52167;DHT22;38149;52.666;6.428;2022-08-01T08:11:11;19.00;99.90
52167;DHT22;38149;52.666;6.428;2022-08-01T08:16:06;18.80;99.90
52167;DHT22;38149;52.666;6.428;2022-08-01T08:18:32;19.00;99.90
52167;DHT22;38149;52.666;6.428;2022-08-01T08:20:58;19.30;99.90
52167;DHT22;38149;52.666;6.428;2022-08-01T08:23:24;19.90;99.90
52167;DHT22;38149;52.666;6.428;2022-08-01T08:28:36;18.80;99.90
52167;DHT22;38149;52.666;6.428;2022-08-01T08:31:01;19.00;99.90
52167;DHT22;38149;52.666;6.428;2022-08-01T08:33:27;19.00;99.90
52167;DHT22;38149;52.666;6.428;2022-08-01T08:38:20;19.10;99.90
52167;DHT22;38149;52.666;6.428;2022-08-01T08:40:46;19.20;99.90
52167;DHT22;38149;52.666;6.428;2022-08-01T08:43:11;19.20;99.90
52167;DHT22;38149;52.666;6.428;2022-08-01T08:45:38;19.30;99.90
52167;DHT22;38149;52.666;6.428;2022-08-01T08:48:05;19.40;99.90
52167;DHT22;38149;52.666;6.428;2022-08-01T08:50:31;19.40;99.90
52167;DHT22;38149;52.666;6.428;2022-08-01T08:52:59;19.40;99.90
52167;DHT22;38149;52.666;6.428;2022-08-01T08:55:27;19.50;99.90
52167;DHT22;38149;52.666;6.428;2022-08-01T08:57:54;19.40;99.90
52167;DHT22;38149;52.666;6.428;2022-08-01T09:00:20;19.60;99.90
52167;DHT22;38149;52.666;6.428;2022-08-01T09:02:47;19.50;99.90
52167;DHT22;38149;52.666;6.428;2022-08-01T09:05:15;19.50;99.90
52167;DHT22;38149;52.666;6.428;2022-08-01T09:10:10;19.90;99.90
52167;DHT22;38149;52.666;6.428;2022-08-01T09:12:37;19.80;99.90
52167;DHT22;38149;52.666;6.428;2022-08-01T09:15:03;19.70;99.90
52167;DHT22;38149;52.666;6.428;2022-08-01T09:17:39;20.00;99.90
52167;DHT22;38149;52.666;6.428;2022-08-01T09:20:06;20.00;99.90
52167;DHT22;38149;52.666;6.428;2022-08-01T09:30:27;20.00;99.90
52167;DHT22;38149;52.666;6.428;2022-08-01T09:33:04;20.00;99.90
52167;DHT22;38149;52.666;6.428;2022-08-01T09:35:32;20.10;99.90
52167;DHT22;38149;52.666;6.428;2022-08-01T09:40:58;20.20;99.90
52167;DHT22;38149;52.666;6.428;2022-08-01T09:43:30;20.20;99.90
52167;DHT22;38149;52.666;6.428;2022-08-01T09:45:57;20.30;99.90
52167;DHT22;38149;52.666;6.428;2022-08-01T09:48:23;20.50;99.90
52167;DHT22;38149;52.666;6.428;2022-08-01T09:50:52;20.70;99.90
52167;DHT22;38149;52.666;6.428;2022-08-01T09:53:19;20.30;99.90
52167;DHT22;38149;52.666;6.428;2022-08-01T09:55:45;20.30;99.90
52167;DHT22;38149;52.666;6.428;2022-08-01T09:58:11;20.40;99.90
52167;DHT22;38149;52.666;6.428;2022-08-01T10:03:22;20.50;99.90
52167;DHT22;38149;52.666;6.428;2022-08-01T10:05:49;20.50;99.90
52167;DHT22;38149;52.666;6.428;2022-08-01T10:08:17;20.50;99.90
52167;DHT22;38149;52.666;6.428;2022-08-01T10:11:13;20.60;99.90
52167;DHT22;38149;52.666;6.428;2022-08-01T10:16:08;20.70;99.90
52167;DHT22;38149;52.666;6.428;2022-08-01T10:18:35;20.90;99.90
52167;DHT22;38149;52.666;6.428;2022-08-01T10:21:02;20.80;99.90
52167;DHT22;38149;52.666;6.428;2022-08-01T10:23:34;21.00;99.90
52167;DHT22;38149;52.666;6.428;2022-08-01T10:26:01;21.10;99.90
52167;DHT22;38149;52.666;6.428;2022-08-01T10:28:30;21.20;99.90
52167;DHT22;38149;52.666;6.428;2022-08-01T10:30:57;21.20;99.90
52167;DHT22;38149;52.666;6.428;2022-08-01T10:33:24;21.10;99.90
52167;DHT22;38149;52.666;6.428;2022-08-01T10:35:51;21.20;99.90
52167;DHT22;38149;52.666;6.428;2022-08-01T10:40:44;20.70;99.90
52167;DHT22;38149;52.666;6.428;2022-08-01T10:43:11;21.10;99.90
52167;DHT22;38149;52.666;6.428;2022-08-01T10:45:39;21.10;99.90
52167;DHT22;38149;52.666;6.428;2022-08-01T10:53:27;21.40;99.90
52167;DHT22;38149;52.666;6.428;2022-08-01T10:58:24;21.40;99.90
52167;DHT22;38149;52.666;6.428;2022-08-01T11:01:16;21.50;99.90
52167;DHT22;38149;52.666;6.428;2022-08-01T11:06:52;21.70;99.90
52167;DHT22;38149;52.666;6.428;2022-08-01T11:20:15;21.80;99.90
52167;DHT22;38149;52.666;6.428;2022-08-01T11:28:18;21.70;99.90
52167;DHT22;38149;52.666;6.428;2022-08-01T11:30:46;21.90;99.90
52167;DHT22;38149;52.666;6.428;2022-08-01T11:33:14;21.70;99.90
52167;DHT22;38149;52.666;6.428;2022-08-01T11:36:16;21.90;99.90
52167;DHT22;38149;52.666;6.428;2022-08-01T11:41:25;21.80;99.90
52167;DHT22;38149;52.666;6.428;2022-08-01T11:55:05;22.00;99.90
52167;DHT22;38149;52.666;6.428;2022-08-01T12:00:23;22.00;99.90
52167;DHT22;38149;52.666;6.428;2022-08-01T12:02:57;22.00;99.90
52167;DHT22;38149;52.666;6.428;2022-08-01T12:05:25;22.10;99.90
52167;DHT22;38149;52.666;6.428;2022-08-01T12:07:52;22.10;99.90
52167;DHT22;38149;52.666;6.428;2022-08-01T12:10:20;22.20;99.90
52167;DHT22;38149;52.666;6.428;2022-08-01T12:12:53;22.10;99.90
52167;DHT22;38149;52.666;6.428;2022-08-01T12:15:29;22.00;99.90
52167;DHT22;38149;52.666;6.428;2022-08-01T12:20:38;22.20;99.90
52167;DHT22;38149;52.666;6.428;2022-08-01T12:43:18;22.30;99.90
52167;DHT22;38149;52.666;6.428;2022-08-01T12:45:46;22.40;99.90
52167;DHT22;38149;52.666;6.428;2022-08-01T12:48:17;22.40;99.90
52167;DHT22;38149;52.666;6.428;2022-08-01T12:50:45;22.40;99.90
52167;DHT22;38149;52.666;6.428;2022-08-01T12:53:14;22.40;99.90
52167;DHT22;38149;52.666;6.428;2022-08-01T12:55:51;22.00;99.90
52167;DHT22;38149;52.666;6.428;2022-08-01T12:58:19;22.50;99.90
52167;DHT22;38149;52.666;6.428;2022-08-01T13:00:47;22.30;99.90
52167;DHT22;38149;52.666;6.428;2022-08-01T13:03:19;22.40;99.90
52167;DHT22;38149;52.666;6.428;2022-08-01T13:05:56;22.50;99.90
52167;DHT22;38149;52.666;6.428;2022-08-01T13:11:05;22.60;99.90
52167;DHT22;38149;52.666;6.428;2022-08-01T13:16:09;22.70;99.90
52167;DHT22;38149;52.666;6.428;2022-08-01T13:18:35;22.70;99.90
52167;DHT22;38149;52.666;6.428;2022-08-01T13:26:48;22.80;99.90
52167;DHT22;38149;52.666;6.428;2022-08-01T13:29:45;22.70;99.90
52167;DHT22;38149;52.666;6.428;2022-08-01T13:32:20;23.10;99.90
52167;DHT22;38149;52.666;6.428;2022-08-01T13:34:47;22.90;99.90
52167;DHT22;38149;52.666;6.428;2022-08-01T13:37:15;22.90;99.90
52167;DHT22;38149;52.666;6.428;2022-08-01T13:44:40;22.90;99.90
52167;DHT22;38149;52.666;6.428;2022-08-01T13:47:07;23.00;99.90
52167;DHT22;38149;52.666;6.428;2022-08-01T13:49:34;23.10;99.90
52167;DHT22;38149;52.666;6.428;2022-08-01T13:52:00;23.60;99.90
52167;DHT22;38149;52.666;6.428;2022-08-01T13:54:26;22.90;99.90
52167;DHT22;38149;52.666;6.428;2022-08-01T13:56:52;23.20;99.90
52167;DHT22;38149;52.666;6.428;2022-08-01T13:59:19;23.50;99.90
52167;DHT22;38149;52.666;6.428;2022-08-01T14:01:45;23.10;99.90
52167;DHT22;38149;52.666;6.428;2022-08-01T14:04:11;23.20;99.90
52167;DHT22;38149;52.666;6.428;2022-08-01T14:06:37;23.30;99.90
52167;DHT22;38149;52.666;6.428;2022-08-01T14:09:04;23.20;99.90
52167;DHT22;38149;52.666;6.428;2022-08-01T14:11:30;23.20;99.90
52167;DHT22;38149;52.666;6.428;2022-08-01T14:13:56;23.10;99.90
52167;DHT22;38149;52.666;6.428;2022-08-01T14:18:49;23.20;99.90
52167;DHT22;38149;52.666;6.428;2022-08-01T14:21:15;23.30;99.90
52167;DHT22;38149;52.666;6.428;2022-08-01T14:23:41;23.30;99.90
52167;DHT22;38149;52.666;6.428;2022-08-01T14:26:08;23.40;99.90
52167;DHT22;38149;52.666;6.428;2022-08-01T14:28:36;23.30;99.90
52167;DHT22;38149;52.666;6.428;2022-08-01T14:31:02;23.40;99.90
52167;DHT22;38149;52.666;6.428;2022-08-01T14:33:28;23.40;99.90
52167;DHT22;38149;52.666;6.428;2022-08-01T14:35:54;23.50;99.90
52167;DHT22;38149;52.666;6.428;2022-08-01T14:38:20;23.70;99.80
52167;DHT22;38149;52.666;6.428;2022-08-01T14:40:46;23.90;99.90
52167;DHT22;38149;52.666;6.428;2022-08-01T14:43:17;24.10;99.90
52167;DHT22;38149;52.666;6.428;2022-08-01T14:45:43;24.10;99.90
52167;DHT22;38149;52.666;6.428;2022-08-01T14:48:09;24.10;99.90
52167;DHT22;38149;52.666;6.428;2022-08-01T14:50:35;24.10;99.90
52167;DHT22;38149;52.666;6.428;2022-08-01T14:53:01;24.20;99.90
52167;DHT22;38149;52.666;6.428;2022-08-01T14:55:27;24.20;99.90
52167;DHT22;38149;52.666;6.428;2022-08-01T14:57:53;24.30;99.90
52167;DHT22;38149;52.666;6.428;2022-08-01T15:00:19;24.40;99.90
52167;DHT22;38149;52.666;6.428;2022-08-01T15:02:45;24.40;99.90
52167;DHT22;38149;52.666;6.428;2022-08-01T15:05:11;24.60;99.90
52167;DHT22;38149;52.666;6.428;2022-08-01T15:07:38;24.60;99.90
52167;DHT22;38149;52.666;6.428;2022-08-01T15:10:05;24.60;99.90
52167;DHT22;38149;52.666;6.428;2022-08-01T15:12:31;24.70;99.90
52167;DHT22;38149;52.666;6.428;2022-08-01T15:14:58;24.80;99.90
52167;DHT22;38149;52.666;6.428;2022-08-01T15:17:28;24.70;99.90
52167;DHT22;38149;52.666;6.428;2022-08-01T15:19:57;24.70;99.90
52167;DHT22;38149;52.666;6.428;2022-08-01T15:22:25;23.90;99.90
52167;DHT22;38149;52.666;6.428;2022-08-01T15:24:55;24.80;99.90
52167;DHT22;38149;52.666;6.428;2022-08-01T15:27:22;24.60;99.90
52167;DHT22;38149;52.666;6.428;2022-08-01T15:29:48;24.80;99.90
52167;DHT22;38149;52.666;6.428;2022-08-01T15:32:14;25.10;99.90
52167;DHT22;38149;52.666;6.428;2022-08-01T15:34:41;25.00;99.90
52167;DHT22;38149;52.666;6.428;2022-08-01T15:37:08;25.20;99.90
52167;DHT22;38149;52.666;6.428;2022-08-01T15:39:34;25.30;99.90
52167;DHT22;38149;52.666;6.428;2022-08-01T15:42:09;25.30;99.90
52167;DHT22;38149;52.666;6.428;2022-08-01T15:44:36;25.40;99.90
52167;DHT22;38149;52.666;6.428;2022-08-01T15:47:03;25.60;99.90
52167;DHT22;38149;52.666;6.428;2022-08-01T15:49:30;25.70;99.90
52167;DHT22;38149;52.666;6.428;2022-08-01T15:51:56;25.80;99.90
52167;DHT22;38149;52.666;6.428;2022-08-01T15:54:23;25.80;99.90
52167;DHT22;38149;52.666;6.428;2022-08-01T15:56:48;25.00;99.90
52167;DHT22;38149;52.666;6.428;2022-08-01T15:59:14;25.80;99.90
52167;DHT22;38149;52.666;6.428;2022-08-01T16:01:40;25.80;99.90
52167;DHT22;38149;52.666;6.428;2022-08-01T16:08:59;26.20;98.20
52167;DHT22;38149;52.666;6.428;2022-08-01T16:11:25;26.20;99.90
52167;DHT22;38149;52.666;6.428;2022-08-01T16:13:55;26.20;99.90
52167;DHT22;38149;52.666;6.428;2022-08-01T16:16:22;26.10;99.90
52167;DHT22;38149;52.666;6.428;2022-08-01T16:18:48;26.20;99.90
52167;DHT22;38149;52.666;6.428;2022-08-01T16:21:14;26.00;99.90
52167;DHT22;38149;52.666;6.428;2022-08-01T16:23:41;26.40;99.90
52167;DHT22;38149;52.666;6.428;2022-08-01T16:26:07;26.40;98.10
52167;DHT22;38149;52.666;6.428;2022-08-01T16:28:34;26.50;99.90
52167;DHT22;38149;52.666;6.428;2022-08-01T16:31:00;26.60;99.90
52167;DHT22;38149;52.666;6.428;2022-08-01T16:33:27;26.60;99.90
52167;DHT22;38149;52.666;6.428;2022-08-01T16:35:53;26.50;99.90
52167;DHT22;38149;52.666;6.428;2022-08-01T16:40:49;26.40;99.90
52167;DHT22;38149;52.666;6.428;2022-08-01T16:43:17;27.10;99.90
52167;DHT22;38149;52.666;6.428;2022-08-01T16:48:11;26.30;99.90
52167;DHT22;38149;52.666;6.428;2022-08-01T16:50:41;26.20;99.90
52167;DHT22;38149;52.666;6.428;2022-08-01T17:07:55;25.30;93.80
52167;DHT22;38149;52.666;6.428;2022-08-01T17:10:21;25.20;94.50
52167;DHT22;38149;52.666;6.428;2022-08-01T17:15:13;25.10;98.90
52167;DHT22;38149;52.666;6.428;2022-08-01T17:20:05;24.90;99.90
52167;DHT22;38149;52.666;6.428;2022-08-01T17:22:31;25.00;99.90
52167;DHT22;38149;52.666;6.428;2022-08-01T17:24:57;24.50;99.90
52167;DHT22;38149;52.666;6.428;2022-08-01T17:27:23;24.50;98.80
52167;DHT22;38149;52.666;6.428;2022-08-01T17:29:49;24.50;98.30
52167;DHT22;38149;52.666;6.428;2022-08-01T17:32:14;24.40;99.90
52167;DHT22;38149;52.666;6.428;2022-08-01T17:34:41;24.40;99.90
52167;DHT22;38149;52.666;6.428;2022-08-01T17:37:07;24.30;99.90
52167;DHT22;38149;52.666;6.428;2022-08-01T17:39:33;24.30;97.90
52167;DHT22;38149;52.666;6.428;2022-08-01T17:41:58;24.20;97.40
52167;DHT22;38149;52.666;6.428;2022-08-01T17:44:24;24.10;97.70
52167;DHT22;38149;52.666;6.428;2022-08-01T17:46:52;23.90;99.90
52167;DHT22;38149;52.666;6.428;2022-08-01T17:51:44;23.40;87.30
52167;DHT22;38149;52.666;6.428;2022-08-01T17:54:11;23.70;88.00
52167;DHT22;38149;52.666;6.428;2022-08-01T17:56:37;23.70;92.10
52167;DHT22;38149;52.666;6.428;2022-08-01T17:59:03;23.70;91.60
52167;DHT22;38149;52.666;6.428;2022-08-01T18:01:29;23.50;89.60
52167;DHT22;38149;52.666;6.428;2022-08-01T18:03:55;22.90;94.20
52167;DHT22;38149;52.666;6.428;2022-08-01T18:06:23;23.50;94.60
52167;DHT22;38149;52.666;6.428;2022-08-01T18:08:49;23.20;96.20
52167;DHT22;38149;52.666;6.428;2022-08-01T18:13:42;23.30;95.00
52167;DHT22;38149;52.666;6.428;2022-08-01T18:18:37;23.20;94.30
52167;DHT22;38149;52.666;6.428;2022-08-01T18:21:05;23.10;97.30
52167;DHT22;38149;52.666;6.428;2022-08-01T18:23:32;23.10;97.60
52167;DHT22;38149;52.666;6.428;2022-08-01T18:25:59;23.00;99.90
52167;DHT22;38149;52.666;6.428;2022-08-01T18:30:54;22.80;96.10
52167;DHT22;38149;52.666;6.428;2022-08-01T18:38:14;22.70;99.90
52167;DHT22;38149;52.666;6.428;2022-08-01T18:43:07;22.70;98.60
52167;DHT22;38149;52.666;6.428;2022-08-01T18:45:32;22.50;99.40
52167;DHT22;38149;52.666;6.428;2022-08-01T18:47:59;22.50;99.90
52167;DHT22;38149;52.666;6.428;2022-08-01T18:50:25;22.50;99.90
52167;DHT22;38149;52.666;6.428;2022-08-01T18:57:45;22.30;99.90
52167;DHT22;38149;52.666;6.428;2022-08-01T19:02:39;22.20;99.40
52167;DHT22;38149;52.666;6.428;2022-08-01T19:07:36;22.10;99.90
52167;DHT22;38149;52.666;6.428;2022-08-01T19:10:02;22.10;99.90
52167;DHT22;38149;52.666;6.428;2022-08-01T19:12:28;22.10;98.20
52167;DHT22;38149;52.666;6.428;2022-08-01T19:14:55;22.00;99.90
52167;DHT22;38149;52.666;6.428;2022-08-01T19:17:21;22.30;98.90
52167;DHT22;38149;52.666;6.428;2022-08-01T19:19:47;21.70;99.90
52167;DHT22;38149;52.666;6.428;2022-08-01T19:29:37;21.80;99.90
52167;DHT22;38149;52.666;6.428;2022-08-01T19:32:05;21.60;99.90
52167;DHT22;38149;52.666;6.428;2022-08-01T19:34:40;21.70;99.90
52167;DHT22;38149;52.666;6.428;2022-08-01T19:39:36;21.60;95.70
52167;DHT22;38149;52.666;6.428;2022-08-01T19:42:02;21.40;95.50
52167;DHT22;38149;52.666;6.428;2022-08-01T19:44:29;21.40;95.90
52167;DHT22;38149;52.666;6.428;2022-08-01T19:46:56;21.20;99.90
52167;DHT22;38149;52.666;6.428;2022-08-01T19:49:22;21.10;94.10
52167;DHT22;38149;52.666;6.428;2022-08-01T19:51:49;21.10;93.60
52167;DHT22;38149;52.666;6.428;2022-08-01T19:54:20;21.10;93.90
52167;DHT22;38149;52.666;6.428;2022-08-01T19:56:51;21.00;94.20
52167;DHT22;38149;52.666;6.428;2022-08-01T19:59:20;21.00;94.50
52167;DHT22;38149;52.666;6.428;2022-08-01T20:01:48;21.00;99.90
52167;DHT22;38149;52.666;6.428;2022-08-01T20:04:19;20.90;99.90
52167;DHT22;38149;52.666;6.428;2022-08-01T20:06:46;20.90;96.50
52167;DHT22;38149;52.666;6.428;2022-08-01T20:09:12;20.60;98.20
52167;DHT22;38149;52.666;6.428;2022-08-01T20:11:46;20.70;99.90
52167;DHT22;38149;52.666;6.428;2022-08-01T20:29:11;20.20;99.90
52167;DHT22;38149;52.666;6.428;2022-08-01T20:31:38;20.40;99.90
52167;DHT22;38149;52.666;6.428;2022-08-01T20:34:05;20.30;99.90
52167;DHT22;38149;52.666;6.428;2022-08-01T20:39:02;20.20;99.90
52167;DHT22;38149;52.666;6.428;2022-08-01T20:41:28;20.10;99.90
52167;DHT22;38149;52.666;6.428;2022-08-01T20:43:55;20.10;99.90
52167;DHT22;38149;52.666;6.428;2022-08-01T20:46:27;20.00;99.90
52167;DHT22;38149;52.666;6.428;2022-08-01T20:48:54;20.00;99.90
52167;DHT22;38149;52.666;6.428;2022-08-01T20:51:25;19.80;96.20
52167;DHT22;38149;52.666;6.428;2022-08-01T20:53:53;19.70;96.60
52167;DHT22;38149;52.666;6.428;2022-08-01T22:05:55;18.10;99.90
52167;DHT22;38149;52.666;6.428;2022-08-01T22:08:33;18.10;99.90
52167;DHT22;38149;52.666;6.428;2022-08-01T22:11:06;18.00;99.90
52167;DHT22;38149;52.666;6.428;2022-08-01T22:13:33;17.90;99.90
52167;DHT22;38149;52.666;6.428;2022-08-01T22:16:02;18.20;99.90
52167;DHT22;38149;52.666;6.428;2022-08-01T22:18:29;17.90;99.90
52167;DHT22;38149;52.666;6.428;2022-08-01T22:20:57;17.70;99.90
52167;DHT22;38149;52.666;6.428;2022-08-01T22:25:52;17.40;99.90
52167;DHT22;38149;52.666;6.428;2022-08-01T22:28:21;17.90;99.90
52167;DHT22;38149;52.666;6.428;2022-08-01T22:43:58;17.20;99.90
52167;DHT22;38149;52.666;6.428;2022-08-01T23:04:33;16.90;99.90
52167;DHT22;38149;52.666;6.428;2022-08-01T23:07:18;17.10;99.90
52167;DHT22;38149;52.666;6.428;2022-08-01T23:09:45;16.70;99.90
52167;DHT22;38149;52.666;6.428;2022-08-01T23:12:13;16.60;99.90
52167;DHT22;38149;52.666;6.428;2022-08-01T23:14:39;16.60;99.90
52167;DHT22;38149;52.666;6.428;2022-08-01T23:17:07;16.60;99.90
52167;DHT22;38149;52.666;6.428;2022-08-01T23:19:35;16.60;99.90
52167;DHT22;38149;52.666;6.428;2022-08-01T23:22:03;16.90;99.90
52167;DHT22;38149;52.666;6.428;2022-08-01T23:24:30;16.70;99.90
52167;DHT22;38149;52.666;6.428;2022-08-01T23:26:57;16.60;99.90
52167;DHT22;38149;52.666;6.428;2022-08-01T23:29:49;15.90;99.90
52167;DHT22;38149;52.666;6.428;2022-08-01T23:34:43;16.20;99.90
52167;DHT22;38149;52.666;6.428;2022-08-01T23:37:09;16.40;99.90
52167;DHT22;38149;52.666;6.428;2022-08-01T23:39:35;16.30;99.90
52167;DHT22;38149;52.666;6.428;2022-08-01T23:42:02;16.00;99.90
52167;DHT22;38149;52.666;6.428;2022-08-01T23:44:27;16.30;99.90
52167;DHT22;38149;52.666;6.428;2022-08-01T23:46:53;16.30;99.90
52167;DHT22;38149;52.666;6.428;2022-08-01T23:49:19;16.10;99.90
52167;DHT22;38149;52.666;6.428;2022-08-01T23:54:11;15.90;99.90
52167;DHT22;38149;52.666;6.428;2022-08-01T23:56:37;16.00;99.90
52167;DHT22;38149;52.666;6.428;2022-08-01T23:59:03;16.20;99.90
